VXP716 KHVN-KMCO
Flight info
| Callsign | VXP716 |
|---|---|
| Flight time | 2h 12m |
| Altitude | 38000 |
| Route | BEADS EMJAY Q167 ZJAAY Q97 SAWED MOXXY Q85 LPERD GTOUT1 |
| Aircraft | B738/M-SDE2E3FGHIRWXY/LB1 |
Departure
| Time | 2026-04-26 19:06 |
|---|---|
| Airport | Tweed New Haven Airport (KHVN) |
Arrival
| Time | 2026-04-26 21:19 |
|---|---|
| Airport | Orlando International Airport (KMCO) |
| Time | Latitude | Longitude | Altitude | Speed | Heading |
|---|---|---|---|---|---|
| 2026-04-26 18:49 | 41.26851 | -72.89072 | 29 ft | 0 kts | 310° |
| 2026-04-26 19:00 | 41.26847 | -72.89065 | 29 ft | 2 kts | 310° |
| 2026-04-26 19:00 | 41.26837 | -72.89050 | 28 ft | 2 kts | 310° |
| 2026-04-26 19:01 | 41.26829 | -72.89037 | 28 ft | 1 kts | 310° |
| 2026-04-26 19:01 | 41.26820 | -72.89023 | 27 ft | 2 kts | 310° |
| 2026-04-26 19:01 | 41.26810 | -72.89008 | 27 ft | 2 kts | 311° |
| 2026-04-26 19:01 | 41.26806 | -72.88992 | 27 ft | 1 kts | 269° |
| 2026-04-26 19:02 | 41.26801 | -72.88979 | 27 ft | 1 kts | 333° |
| 2026-04-26 19:02 | 41.26798 | -72.88978 | 27 ft | 0 kts | 340° |
| 2026-04-26 19:04 | 41.26804 | -72.88978 | 27 ft | 3 kts | 3° |
| 2026-04-26 19:04 | 41.26837 | -72.88954 | 26 ft | 8 kts | 36° |
| 2026-04-26 19:04 | 41.26897 | -72.88911 | 26 ft | 9 kts | 6° |
| 2026-04-26 19:04 | 41.26956 | -72.88902 | 27 ft | 7 kts | 7° |
| 2026-04-26 19:05 | 41.27047 | -72.88856 | 28 ft | 8 kts | 37° |
| 2026-04-26 19:05 | 41.27096 | -72.88805 | 27 ft | 9 kts | 42° |
| 2026-04-26 19:05 | 41.27103 | -72.88734 | 26 ft | 9 kts | 143° |
| 2026-04-26 19:06 | 41.27020 | -72.88730 | 25 ft | 28 kts | 182° |
| 2026-04-26 19:06 | 41.26432 | -72.88775 | 25 ft | 138 kts | 181° |
| 2026-04-26 19:06 | 41.25221 | -72.88906 | 377 ft | 197 kts | 184° |
| 2026-04-26 19:06 | 41.23801 | -72.89225 | 800 ft | 215 kts | 186° |
| 2026-04-26 19:07 | 41.22310 | -72.89360 | 1429 ft | 222 kts | 173° |
| 2026-04-26 19:07 | 41.20874 | -72.88532 | 2268 ft | 236 kts | 133° |
| 2026-04-26 19:07 | 41.19901 | -72.86820 | 3216 ft | 245 kts | 119° |
| 2026-04-26 19:07 | 41.18834 | -72.85011 | 4145 ft | 261 kts | 129° |
| 2026-04-26 19:08 | 41.17433 | -72.83484 | 5122 ft | 270 kts | 143° |
| 2026-04-26 19:08 | 41.15801 | -72.82259 | 6226 ft | 277 kts | 149° |
| 2026-04-26 19:08 | 41.14086 | -72.81148 | 7179 ft | 282 kts | 151° |
| 2026-04-26 19:08 | 41.12328 | -72.80035 | 8095 ft | 282 kts | 151° |
| 2026-04-26 19:09 | 41.10529 | -72.78873 | 8906 ft | 296 kts | 150° |
| 2026-04-26 19:09 | 41.08660 | -72.77644 | 9946 ft | 300 kts | 151° |
| 2026-04-26 19:09 | 41.06799 | -72.76405 | 10805 ft | 310 kts | 151° |
| 2026-04-26 19:09 | 41.04809 | -72.75071 | 11437 ft | 329 kts | 151° |
| 2026-04-26 19:10 | 41.02736 | -72.73685 | 12066 ft | 345 kts | 152° |
| 2026-04-26 19:10 | 41.00521 | -72.72208 | 12710 ft | 361 kts | 152° |
| 2026-04-26 19:10 | 40.98262 | -72.70708 | 13648 ft | 366 kts | 153° |
| 2026-04-26 19:10 | 40.95976 | -72.69192 | 14543 ft | 371 kts | 153° |
| 2026-04-26 19:11 | 40.93693 | -72.67680 | 15357 ft | 378 kts | 153° |
| 2026-04-26 19:11 | 40.91315 | -72.66103 | 16199 ft | 384 kts | 154° |
| 2026-04-26 19:11 | 40.88925 | -72.64522 | 17023 ft | 389 kts | 154° |
| 2026-04-26 19:11 | 40.86495 | -72.62916 | 17803 ft | 395 kts | 154° |
| 2026-04-26 19:12 | 40.84040 | -72.61296 | 18543 ft | 401 kts | 154° |
| 2026-04-26 19:12 | 40.81565 | -72.59663 | 19347 ft | 405 kts | 155° |
| 2026-04-26 19:12 | 40.78927 | -72.58171 | 20122 ft | 407 kts | 163° |
| 2026-04-26 19:12 | 40.76172 | -72.57304 | 20867 ft | 408 kts | 175° |
| 2026-04-26 19:13 | 40.73346 | -72.57114 | 21582 ft | 408 kts | 186° |
| 2026-04-26 19:13 | 40.70546 | -72.57611 | 22358 ft | 405 kts | 197° |
| 2026-04-26 19:13 | 40.67897 | -72.58757 | 23016 ft | 403 kts | 208° |
| 2026-04-26 19:13 | 40.65463 | -72.60535 | 23775 ft | 397 kts | 219° |
| 2026-04-26 19:14 | 40.63355 | -72.62833 | 24404 ft | 393 kts | 230° |
| 2026-04-26 19:14 | 40.61483 | -72.65495 | 25038 ft | 393 kts | 233° |
| 2026-04-26 19:14 | 40.59713 | -72.68187 | 25672 ft | 396 kts | 233° |
| 2026-04-26 19:14 | 40.58473 | -72.70016 | 26081 ft | 399 kts | 232° |
| 2026-04-26 19:15 | 40.55927 | -72.73505 | 26966 ft | 401 kts | 230° |
| 2026-04-26 19:15 | 40.53904 | -72.76067 | 27473 ft | 407 kts | 228° |
| 2026-04-26 19:15 | 40.51797 | -72.78603 | 28059 ft | 409 kts | 227° |
| 2026-04-26 19:15 | 40.49669 | -72.81084 | 28580 ft | 413 kts | 226° |
| 2026-04-26 19:16 | 40.47467 | -72.83606 | 29095 ft | 416 kts | 226° |
| 2026-04-26 19:16 | 40.45268 | -72.86094 | 29555 ft | 421 kts | 226° |
| 2026-04-26 19:16 | 40.43039 | -72.88605 | 29774 ft | 431 kts | 225° |
| 2026-04-26 19:16 | 40.40749 | -72.91181 | 29888 ft | 442 kts | 225° |
| 2026-04-26 19:17 | 40.38388 | -72.93829 | 30010 ft | 454 kts | 225° |
| 2026-04-26 19:17 | 40.35976 | -72.96528 | 30419 ft | 458 kts | 225° |
| 2026-04-26 19:17 | 40.33579 | -72.99197 | 31297 ft | 450 kts | 224° |
| 2026-04-26 19:17 | 40.31228 | -73.01805 | 32274 ft | 440 kts | 224° |
| 2026-04-26 19:18 | 40.28928 | -73.04356 | 32976 ft | 436 kts | 224° |
| 2026-04-26 19:18 | 40.26619 | -73.06922 | 33537 ft | 434 kts | 224° |
| 2026-04-26 19:18 | 40.24329 | -73.09467 | 34148 ft | 431 kts | 224° |
| 2026-04-26 19:18 | 40.22053 | -73.11996 | 34680 ft | 429 kts | 224° |
| 2026-04-26 19:19 | 40.19785 | -73.14515 | 35078 ft | 429 kts | 224° |
| 2026-04-26 19:19 | 40.17510 | -73.17042 | 35470 ft | 429 kts | 224° |
| 2026-04-26 19:19 | 40.15257 | -73.19543 | 35906 ft | 428 kts | 224° |
| 2026-04-26 19:19 | 40.13010 | -73.22034 | 36294 ft | 428 kts | 224° |
| 2026-04-26 19:20 | 40.10726 | -73.24565 | 36776 ft | 427 kts | 224° |
| 2026-04-26 19:20 | 40.09223 | -73.26228 | 37112 ft | 425 kts | 224° |
| 2026-04-26 19:20 | 40.06226 | -73.29562 | 37663 ft | 424 kts | 224° |
| 2026-04-26 19:20 | 40.04023 | -73.32031 | 38061 ft | 423 kts | 225° |
| 2026-04-26 19:21 | 40.01786 | -73.34542 | 38139 ft | 427 kts | 225° |
| 2026-04-26 19:21 | 39.97351 | -73.39516 | 38145 ft | 424 kts | 225° |
| 2026-04-26 19:22 | 39.92886 | -73.44508 | 38139 ft | 424 kts | 225° |
| 2026-04-26 19:22 | 39.88394 | -73.49520 | 38141 ft | 424 kts | 225° |
| 2026-04-26 19:23 | 39.83950 | -73.54467 | 38137 ft | 423 kts | 225° |
| 2026-04-26 19:23 | 39.79480 | -73.59444 | 38146 ft | 426 kts | 225° |
| 2026-04-26 19:24 | 39.75001 | -73.64425 | 38137 ft | 424 kts | 225° |
| 2026-04-26 19:24 | 39.68306 | -73.71855 | 38134 ft | 425 kts | 224° |
| 2026-04-26 19:25 | 39.64544 | -73.76022 | 38130 ft | 423 kts | 224° |
| 2026-04-26 19:25 | 39.59315 | -73.81800 | 38126 ft | 423 kts | 224° |
| 2026-04-26 19:26 | 39.54860 | -73.86713 | 38136 ft | 424 kts | 224° |
| 2026-04-26 19:26 | 39.50385 | -73.91641 | 38131 ft | 423 kts | 224° |
| 2026-04-26 19:27 | 39.45917 | -73.96552 | 38127 ft | 424 kts | 224° |
| 2026-04-26 19:27 | 39.41429 | -74.01479 | 38136 ft | 424 kts | 224° |
| 2026-04-26 19:28 | 39.36946 | -74.06387 | 38129 ft | 424 kts | 224° |
| 2026-04-26 19:28 | 39.32443 | -74.11304 | 38130 ft | 424 kts | 224° |
| 2026-04-26 19:29 | 39.27973 | -74.16175 | 38136 ft | 425 kts | 224° |
| 2026-04-26 19:29 | 39.23485 | -74.21056 | 38131 ft | 425 kts | 224° |
| 2026-04-26 19:30 | 39.18998 | -74.25930 | 38136 ft | 424 kts | 223° |
| 2026-04-26 19:30 | 39.15219 | -74.30031 | 38128 ft | 425 kts | 224° |
| 2026-04-26 19:31 | 39.09983 | -74.35702 | 38128 ft | 424 kts | 224° |
| 2026-04-26 19:31 | 39.05450 | -74.40602 | 38129 ft | 424 kts | 224° |
| 2026-04-26 19:32 | 39.00952 | -74.45456 | 38134 ft | 425 kts | 223° |
| 2026-04-26 19:32 | 38.96428 | -74.50329 | 38131 ft | 426 kts | 223° |
| 2026-04-26 19:33 | 38.91900 | -74.55270 | 38134 ft | 425 kts | 225° |
| 2026-04-26 19:33 | 38.87556 | -74.60339 | 38133 ft | 424 kts | 226° |
| 2026-04-26 19:34 | 38.83207 | -74.65498 | 38132 ft | 425 kts | 225° |
| 2026-04-26 19:34 | 38.78881 | -74.70599 | 38133 ft | 424 kts | 225° |
| 2026-04-26 19:35 | 38.74503 | -74.75718 | 38136 ft | 426 kts | 225° |
| 2026-04-26 19:35 | 38.69989 | -74.80592 | 38128 ft | 424 kts | 222° |
| 2026-04-26 19:36 | 38.66150 | -74.84530 | 38131 ft | 426 kts | 222° |
| 2026-04-26 19:36 | 38.60746 | -74.90064 | 38134 ft | 426 kts | 222° |
| 2026-04-26 19:37 | 38.56154 | -74.94794 | 38134 ft | 425 kts | 222° |
| 2026-04-26 19:37 | 38.51579 | -74.99548 | 38130 ft | 425 kts | 223° |
| 2026-04-26 19:38 | 38.47126 | -75.04456 | 38130 ft | 423 kts | 224° |
| 2026-04-26 19:38 | 38.42551 | -75.09223 | 38130 ft | 426 kts | 220° |
| 2026-04-26 19:39 | 38.37797 | -75.13705 | 38134 ft | 427 kts | 219° |
| 2026-04-26 19:39 | 38.33033 | -75.18140 | 38131 ft | 426 kts | 219° |
| 2026-04-26 19:40 | 38.28253 | -75.22620 | 38130 ft | 428 kts | 220° |
| 2026-04-26 19:40 | 38.23484 | -75.27107 | 38130 ft | 428 kts | 220° |
| 2026-04-26 19:41 | 38.18700 | -75.31620 | 38126 ft | 427 kts | 220° |
| 2026-04-26 19:41 | 38.14750 | -75.35342 | 38127 ft | 426 kts | 220° |
| 2026-04-26 19:42 | 38.09214 | -75.40554 | 38126 ft | 428 kts | 220° |
| 2026-04-26 19:42 | 38.04472 | -75.45001 | 38126 ft | 427 kts | 219° |
| 2026-04-26 19:43 | 37.99700 | -75.49256 | 38123 ft | 429 kts | 218° |
| 2026-04-26 19:43 | 37.94819 | -75.53468 | 38117 ft | 429 kts | 217° |
| 2026-04-26 19:44 | 37.89990 | -75.57628 | 38116 ft | 430 kts | 218° |
| 2026-04-26 19:44 | 37.85146 | -75.61813 | 38112 ft | 431 kts | 218° |
| 2026-04-26 19:45 | 37.80239 | -75.65831 | 38110 ft | 432 kts | 214° |
| 2026-04-26 19:45 | 37.75108 | -75.69646 | 38106 ft | 432 kts | 213° |
| 2026-04-26 19:46 | 37.70006 | -75.73395 | 38109 ft | 434 kts | 213° |
| 2026-04-26 19:46 | 37.64855 | -75.77209 | 38106 ft | 433 kts | 213° |
| 2026-04-26 19:47 | 37.60565 | -75.80401 | 38106 ft | 432 kts | 213° |
| 2026-04-26 19:47 | 37.54529 | -75.84913 | 38107 ft | 433 kts | 214° |
| 2026-04-26 19:48 | 37.49642 | -75.89226 | 38103 ft | 431 kts | 221° |
| 2026-04-26 19:48 | 37.45029 | -75.93932 | 38097 ft | 430 kts | 222° |
| 2026-04-26 19:49 | 37.40456 | -75.98669 | 38097 ft | 431 kts | 222° |
| 2026-04-26 19:49 | 37.35823 | -76.03418 | 38099 ft | 432 kts | 221° |
| 2026-04-26 19:50 | 37.31213 | -76.08086 | 38093 ft | 432 kts | 221° |
| 2026-04-26 19:50 | 37.26559 | -76.12769 | 38096 ft | 431 kts | 221° |
| 2026-04-26 19:51 | 37.21927 | -76.17416 | 38098 ft | 433 kts | 221° |
| 2026-04-26 19:51 | 37.17241 | -76.22103 | 38106 ft | 433 kts | 221° |
| 2026-04-26 19:52 | 37.12604 | -76.26736 | 38098 ft | 434 kts | 221° |
| 2026-04-26 19:52 | 37.07936 | -76.31390 | 38101 ft | 435 kts | 221° |
| 2026-04-26 19:53 | 37.03284 | -76.36018 | 38100 ft | 435 kts | 221° |
| 2026-04-26 19:53 | 36.98573 | -76.40700 | 38097 ft | 437 kts | 221° |
| 2026-04-26 19:54 | 36.93919 | -76.45317 | 38097 ft | 436 kts | 221° |
| 2026-04-26 19:54 | 36.89221 | -76.49969 | 38094 ft | 436 kts | 221° |
| 2026-04-26 19:55 | 36.84533 | -76.54606 | 38094 ft | 438 kts | 221° |
| 2026-04-26 19:55 | 36.79781 | -76.59300 | 38096 ft | 439 kts | 221° |
| 2026-04-26 19:56 | 36.75066 | -76.63947 | 38091 ft | 439 kts | 221° |
| 2026-04-26 19:56 | 36.70302 | -76.68636 | 38096 ft | 439 kts | 221° |
| 2026-04-26 19:57 | 36.65584 | -76.73273 | 38088 ft | 439 kts | 221° |
| 2026-04-26 19:57 | 36.60795 | -76.77974 | 38083 ft | 441 kts | 221° |
| 2026-04-26 19:58 | 36.56016 | -76.82655 | 38077 ft | 442 kts | 221° |
| 2026-04-26 19:58 | 36.51186 | -76.87378 | 38073 ft | 443 kts | 221° |
| 2026-04-26 19:59 | 36.46411 | -76.92038 | 38072 ft | 442 kts | 221° |
| 2026-04-26 19:59 | 36.41572 | -76.96755 | 38067 ft | 443 kts | 221° |
| 2026-04-26 20:00 | 36.36725 | -77.01473 | 38063 ft | 444 kts | 221° |
| 2026-04-26 20:00 | 36.31872 | -77.06188 | 38079 ft | 442 kts | 221° |
| 2026-04-26 20:01 | 36.27061 | -77.10854 | 38080 ft | 444 kts | 221° |
| 2026-04-26 20:01 | 36.22198 | -77.15564 | 38083 ft | 445 kts | 221° |
| 2026-04-26 20:02 | 36.17366 | -77.20235 | 38071 ft | 444 kts | 221° |
| 2026-04-26 20:02 | 36.13294 | -77.24167 | 38068 ft | 445 kts | 221° |
| 2026-04-26 20:03 | 36.07622 | -77.29634 | 38064 ft | 445 kts | 221° |
| 2026-04-26 20:03 | 36.02754 | -77.34322 | 38062 ft | 446 kts | 221° |
| 2026-04-26 20:04 | 35.97878 | -77.39038 | 38066 ft | 445 kts | 221° |
| 2026-04-26 20:04 | 35.93019 | -77.43742 | 38068 ft | 448 kts | 221° |
| 2026-04-26 20:05 | 35.88139 | -77.48457 | 38067 ft | 446 kts | 222° |
| 2026-04-26 20:05 | 35.83258 | -77.53163 | 38062 ft | 447 kts | 222° |
| 2026-04-26 20:06 | 35.78434 | -77.57808 | 38058 ft | 447 kts | 222° |
| 2026-04-26 20:06 | 35.73570 | -77.62479 | 38053 ft | 447 kts | 222° |
| 2026-04-26 20:07 | 35.68660 | -77.67188 | 38051 ft | 447 kts | 221° |
| 2026-04-26 20:07 | 35.63778 | -77.71862 | 38044 ft | 447 kts | 221° |
| 2026-04-26 20:08 | 35.58876 | -77.76550 | 38044 ft | 448 kts | 221° |
| 2026-04-26 20:08 | 35.53972 | -77.81232 | 38048 ft | 449 kts | 221° |
| 2026-04-26 20:09 | 35.49094 | -77.85880 | 38046 ft | 449 kts | 221° |
| 2026-04-26 20:09 | 35.44182 | -77.90553 | 38041 ft | 449 kts | 222° |
| 2026-04-26 20:10 | 35.39297 | -77.95193 | 38045 ft | 449 kts | 222° |
| 2026-04-26 20:10 | 35.34388 | -77.99849 | 38035 ft | 448 kts | 222° |
| 2026-04-26 20:11 | 35.29476 | -78.04501 | 38040 ft | 449 kts | 222° |
| 2026-04-26 20:12 | 35.22072 | -78.11498 | 38043 ft | 451 kts | 222° |
| 2026-04-26 20:12 | 35.17137 | -78.16151 | 38046 ft | 450 kts | 222° |
| 2026-04-26 20:13 | 35.12188 | -78.20812 | 38043 ft | 450 kts | 222° |
| 2026-04-26 20:13 | 35.07261 | -78.25445 | 38043 ft | 450 kts | 222° |
| 2026-04-26 20:14 | 35.02302 | -78.30100 | 38046 ft | 449 kts | 222° |
| 2026-04-26 20:14 | 34.97388 | -78.34708 | 38051 ft | 449 kts | 223° |
| 2026-04-26 20:15 | 34.92458 | -78.39324 | 38041 ft | 451 kts | 223° |
| 2026-04-26 20:15 | 34.87517 | -78.43943 | 38049 ft | 450 kts | 223° |
| 2026-04-26 20:16 | 34.82534 | -78.48592 | 38039 ft | 449 kts | 223° |
| 2026-04-26 20:16 | 34.77616 | -78.53175 | 38037 ft | 448 kts | 223° |
| 2026-04-26 20:17 | 34.72669 | -78.57777 | 38029 ft | 448 kts | 223° |
| 2026-04-26 20:17 | 34.67715 | -78.62380 | 38028 ft | 449 kts | 223° |
| 2026-04-26 20:18 | 34.62756 | -78.66980 | 38025 ft | 450 kts | 223° |
| 2026-04-26 20:18 | 34.57817 | -78.71555 | 38019 ft | 448 kts | 223° |
| 2026-04-26 20:19 | 34.52887 | -78.76112 | 38023 ft | 448 kts | 223° |
| 2026-04-26 20:19 | 34.48046 | -78.80579 | 38014 ft | 448 kts | 223° |
| 2026-04-26 20:20 | 34.43191 | -78.85032 | 38004 ft | 450 kts | 222° |
| 2026-04-26 20:20 | 34.38131 | -78.89404 | 38006 ft | 450 kts | 220° |
| 2026-04-26 20:21 | 34.32990 | -78.93685 | 38019 ft | 449 kts | 220° |
| 2026-04-26 20:21 | 34.27881 | -78.97932 | 38007 ft | 449 kts | 220° |
| 2026-04-26 20:22 | 34.22773 | -79.02198 | 37996 ft | 448 kts | 220° |
| 2026-04-26 20:22 | 34.17714 | -79.06432 | 37999 ft | 449 kts | 221° |
| 2026-04-26 20:23 | 34.12652 | -79.10671 | 38001 ft | 449 kts | 221° |
| 2026-04-26 20:23 | 34.07595 | -79.14901 | 37998 ft | 447 kts | 221° |
| 2026-04-26 20:24 | 34.02536 | -79.19129 | 37994 ft | 447 kts | 221° |
| 2026-04-26 20:24 | 33.97492 | -79.23342 | 37988 ft | 447 kts | 221° |
| 2026-04-26 20:25 | 33.92435 | -79.27561 | 37980 ft | 446 kts | 221° |
| 2026-04-26 20:25 | 33.87495 | -79.31677 | 37987 ft | 447 kts | 221° |
| 2026-04-26 20:26 | 33.82419 | -79.35902 | 37975 ft | 448 kts | 221° |
| 2026-04-26 20:26 | 33.77424 | -79.40050 | 37985 ft | 447 kts | 221° |
| 2026-04-26 20:27 | 33.72369 | -79.44244 | 37965 ft | 448 kts | 221° |
| 2026-04-26 20:27 | 33.67344 | -79.48404 | 37970 ft | 446 kts | 221° |
| 2026-04-26 20:28 | 33.62284 | -79.52589 | 37956 ft | 448 kts | 221° |
| 2026-04-26 20:28 | 33.57194 | -79.56793 | 37956 ft | 448 kts | 221° |
| 2026-04-26 20:29 | 33.52168 | -79.60938 | 37948 ft | 448 kts | 221° |
| 2026-04-26 20:29 | 33.47183 | -79.65044 | 37948 ft | 448 kts | 221° |
| 2026-04-26 20:30 | 33.42101 | -79.69221 | 37949 ft | 448 kts | 221° |
| 2026-04-26 20:30 | 33.37083 | -79.73341 | 37940 ft | 446 kts | 221° |
| 2026-04-26 20:31 | 33.32001 | -79.77508 | 37942 ft | 449 kts | 221° |
| 2026-04-26 20:31 | 33.27020 | -79.81584 | 37946 ft | 447 kts | 221° |
| 2026-04-26 20:32 | 33.21944 | -79.85732 | 37948 ft | 449 kts | 221° |
| 2026-04-26 20:32 | 33.16845 | -79.89893 | 37939 ft | 450 kts | 221° |
| 2026-04-26 20:33 | 33.11713 | -79.94073 | 37940 ft | 449 kts | 221° |
| 2026-04-26 20:33 | 33.06632 | -79.98206 | 37939 ft | 449 kts | 221° |
| 2026-04-26 20:34 | 33.01516 | -80.02361 | 37948 ft | 448 kts | 221° |
| 2026-04-26 20:34 | 32.96525 | -80.06410 | 37935 ft | 448 kts | 221° |
| 2026-04-26 20:35 | 32.91403 | -80.10561 | 37931 ft | 448 kts | 221° |
| 2026-04-26 20:35 | 32.86370 | -80.14636 | 37930 ft | 449 kts | 221° |
| 2026-04-26 20:36 | 32.81313 | -80.18722 | 37929 ft | 449 kts | 221° |
| 2026-04-26 20:36 | 32.76297 | -80.22772 | 37927 ft | 449 kts | 221° |
| 2026-04-26 20:37 | 32.71217 | -80.26862 | 37922 ft | 449 kts | 222° |
| 2026-04-26 20:37 | 32.66130 | -80.30956 | 37918 ft | 450 kts | 221° |
| 2026-04-26 20:38 | 32.61015 | -80.35068 | 37916 ft | 451 kts | 222° |
| 2026-04-26 20:38 | 32.55850 | -80.39146 | 37917 ft | 451 kts | 220° |
| 2026-04-26 20:39 | 32.50483 | -80.42864 | 37916 ft | 457 kts | 217° |
| 2026-04-26 20:39 | 32.45030 | -80.46444 | 37912 ft | 457 kts | 217° |
| 2026-04-26 20:40 | 32.39527 | -80.50064 | 37913 ft | 456 kts | 217° |
| 2026-04-26 20:40 | 32.34052 | -80.53703 | 37914 ft | 457 kts | 217° |
| 2026-04-26 20:41 | 32.28555 | -80.57378 | 37910 ft | 457 kts | 218° |
| 2026-04-26 20:41 | 32.23109 | -80.61024 | 37909 ft | 458 kts | 218° |
| 2026-04-26 20:42 | 32.17610 | -80.64705 | 37910 ft | 454 kts | 218° |
| 2026-04-26 20:42 | 32.12116 | -80.68385 | 37906 ft | 459 kts | 217° |
| 2026-04-26 20:43 | 32.06621 | -80.72059 | 37902 ft | 459 kts | 217° |
| 2026-04-26 20:43 | 32.01136 | -80.75716 | 37898 ft | 458 kts | 217° |
| 2026-04-26 20:44 | 31.95660 | -80.79367 | 37890 ft | 458 kts | 217° |
| 2026-04-26 20:44 | 31.90188 | -80.83009 | 37891 ft | 457 kts | 218° |
| 2026-04-26 20:45 | 31.84831 | -80.86569 | 37888 ft | 457 kts | 217° |
| 2026-04-26 20:45 | 31.79469 | -80.90128 | 37884 ft | 457 kts | 218° |
| 2026-04-26 20:46 | 31.74034 | -80.93735 | 37884 ft | 456 kts | 217° |
| 2026-04-26 20:46 | 31.68571 | -80.97351 | 37884 ft | 455 kts | 217° |
| 2026-04-26 20:47 | 31.63158 | -81.00929 | 37881 ft | 458 kts | 217° |
| 2026-04-26 20:47 | 31.57693 | -81.04527 | 37881 ft | 454 kts | 217° |
| 2026-04-26 20:48 | 31.52209 | -81.07970 | 37883 ft | 459 kts | 215° |
| 2026-04-26 20:48 | 31.46658 | -81.11346 | 37884 ft | 459 kts | 215° |
| 2026-04-26 20:49 | 31.41108 | -81.14709 | 37923 ft | 458 kts | 216° |
| 2026-04-26 20:49 | 31.35622 | -81.18026 | 37962 ft | 459 kts | 215° |
| 2026-04-26 20:50 | 31.30095 | -81.21307 | 37962 ft | 461 kts | 215° |
| 2026-04-26 20:50 | 31.24477 | -81.24623 | 37971 ft | 461 kts | 214° |
| 2026-04-26 20:51 | 31.18680 | -81.27592 | 37964 ft | 472 kts | 204° |
| 2026-04-26 20:51 | 31.15508 | -81.28339 | 37973 ft | 483 kts | 193° |
| 2026-04-26 20:51 | 31.12177 | -81.28609 | 37846 ft | 489 kts | 189° |
| 2026-04-26 20:51 | 31.08905 | -81.28665 | 37279 ft | 487 kts | 186° |
| 2026-04-26 20:52 | 31.05629 | -81.28616 | 36456 ft | 485 kts | 185° |
| 2026-04-26 20:52 | 31.02338 | -81.28521 | 35628 ft | 481 kts | 185° |
| 2026-04-26 20:52 | 30.99046 | -81.28423 | 34819 ft | 482 kts | 185° |
| 2026-04-26 20:52 | 30.95745 | -81.28342 | 34012 ft | 485 kts | 186° |
| 2026-04-26 20:53 | 30.92409 | -81.28282 | 33222 ft | 487 kts | 186° |
| 2026-04-26 20:53 | 30.89100 | -81.28239 | 32447 ft | 489 kts | 185° |
| 2026-04-26 20:53 | 30.85682 | -81.28207 | 31653 ft | 489 kts | 185° |
| 2026-04-26 20:53 | 30.82305 | -81.28184 | 30873 ft | 489 kts | 185° |
| 2026-04-26 20:54 | 30.78939 | -81.28168 | 30219 ft | 487 kts | 185° |
| 2026-04-26 20:54 | 30.75553 | -81.28156 | 30008 ft | 489 kts | 185° |
| 2026-04-26 20:54 | 30.72163 | -81.28149 | 29981 ft | 493 kts | 185° |
| 2026-04-26 20:55 | 30.65353 | -81.28134 | 29979 ft | 495 kts | 185° |
| 2026-04-26 20:55 | 30.58550 | -81.28097 | 29980 ft | 494 kts | 184° |
| 2026-04-26 20:56 | 30.51783 | -81.27714 | 29984 ft | 496 kts | 181° |
| 2026-04-26 20:56 | 30.44943 | -81.27119 | 29978 ft | 494 kts | 180° |
| 2026-04-26 20:57 | 30.38196 | -81.26528 | 29918 ft | 494 kts | 180° |
| 2026-04-26 20:57 | 30.34785 | -81.26244 | 29503 ft | 492 kts | 180° |
| 2026-04-26 20:57 | 30.31380 | -81.25968 | 28728 ft | 491 kts | 180° |
| 2026-04-26 20:57 | 30.27968 | -81.25699 | 27913 ft | 489 kts | 180° |
| 2026-04-26 20:58 | 30.24564 | -81.25436 | 27097 ft | 488 kts | 180° |
| 2026-04-26 20:58 | 30.21203 | -81.25183 | 26301 ft | 490 kts | 180° |
| 2026-04-26 20:58 | 30.17774 | -81.24927 | 25486 ft | 491 kts | 180° |
| 2026-04-26 20:58 | 30.14359 | -81.24673 | 24676 ft | 489 kts | 179° |
| 2026-04-26 20:59 | 30.11000 | -81.24422 | 23871 ft | 482 kts | 179° |
| 2026-04-26 20:59 | 30.07642 | -81.24169 | 23059 ft | 477 kts | 179° |
| 2026-04-26 20:59 | 30.04330 | -81.23921 | 22279 ft | 472 kts | 179° |
| 2026-04-26 20:59 | 30.01059 | -81.23677 | 21507 ft | 470 kts | 179° |
| 2026-04-26 21:00 | 29.97801 | -81.23434 | 20737 ft | 466 kts | 179° |
| 2026-04-26 21:00 | 29.94570 | -81.23193 | 19972 ft | 463 kts | 179° |
| 2026-04-26 21:00 | 29.91372 | -81.22955 | 19291 ft | 457 kts | 179° |
| 2026-04-26 21:00 | 29.88204 | -81.22720 | 19012 ft | 456 kts | 179° |
| 2026-04-26 21:01 | 29.85021 | -81.22485 | 18977 ft | 458 kts | 179° |
| 2026-04-26 21:01 | 29.81807 | -81.22248 | 18958 ft | 458 kts | 179° |
| 2026-04-26 21:01 | 29.78599 | -81.22011 | 18963 ft | 458 kts | 179° |
| 2026-04-26 21:01 | 29.75417 | -81.21776 | 18960 ft | 458 kts | 179° |
| 2026-04-26 21:02 | 29.72228 | -81.21540 | 18959 ft | 459 kts | 179° |
| 2026-04-26 21:02 | 29.69067 | -81.21302 | 18952 ft | 458 kts | 179° |
| 2026-04-26 21:02 | 29.65860 | -81.21041 | 18952 ft | 457 kts | 179° |
| 2026-04-26 21:02 | 29.62726 | -81.20771 | 18959 ft | 442 kts | 178° |
| 2026-04-26 21:03 | 29.59780 | -81.20506 | 18825 ft | 422 kts | 178° |
| 2026-04-26 21:03 | 29.56874 | -81.20245 | 18280 ft | 415 kts | 178° |
| 2026-04-26 21:03 | 29.54001 | -81.19989 | 17517 ft | 408 kts | 178° |
| 2026-04-26 21:03 | 29.51259 | -81.19750 | 16770 ft | 402 kts | 178° |
| 2026-04-26 21:04 | 29.48565 | -81.19518 | 16044 ft | 399 kts | 178° |
| 2026-04-26 21:04 | 29.45855 | -81.19286 | 15299 ft | 395 kts | 178° |
| 2026-04-26 21:04 | 29.43113 | -81.19052 | 14541 ft | 391 kts | 178° |
| 2026-04-26 21:04 | 29.40463 | -81.18827 | 13800 ft | 387 kts | 178° |
| 2026-04-26 21:05 | 29.37816 | -81.18602 | 13226 ft | 380 kts | 178° |
| 2026-04-26 21:05 | 29.35216 | -81.18381 | 13020 ft | 380 kts | 178° |
| 2026-04-26 21:05 | 29.32659 | -81.18165 | 12981 ft | 381 kts | 178° |
| 2026-04-26 21:05 | 29.30161 | -81.17954 | 12975 ft | 383 kts | 178° |
| 2026-04-26 21:06 | 29.27480 | -81.17724 | 12951 ft | 383 kts | 178° |
| 2026-04-26 21:06 | 29.24883 | -81.17497 | 12636 ft | 382 kts | 178° |
| 2026-04-26 21:06 | 29.22244 | -81.17263 | 12147 ft | 377 kts | 178° |
| 2026-04-26 21:06 | 29.19658 | -81.16992 | 11992 ft | 375 kts | 174° |
| 2026-04-26 21:07 | 29.17115 | -81.16383 | 11973 ft | 378 kts | 166° |
| 2026-04-26 21:07 | 29.14597 | -81.15440 | 11967 ft | 379 kts | 161° |
| 2026-04-26 21:07 | 29.12166 | -81.14368 | 11960 ft | 378 kts | 160° |
| 2026-04-26 21:07 | 29.09831 | -81.13290 | 11929 ft | 350 kts | 159° |
| 2026-04-26 21:08 | 29.07656 | -81.12288 | 11610 ft | 334 kts | 160° |
| 2026-04-26 21:08 | 29.05517 | -81.11327 | 11039 ft | 328 kts | 161° |
| 2026-04-26 21:08 | 29.03416 | -81.10425 | 10470 ft | 322 kts | 162° |
| 2026-04-26 21:08 | 29.01348 | -81.09615 | 9943 ft | 315 kts | 164° |
| 2026-04-26 21:09 | 28.99335 | -81.08867 | 9390 ft | 311 kts | 165° |
| 2026-04-26 21:09 | 28.97291 | -81.08209 | 9001 ft | 300 kts | 172° |
| 2026-04-26 21:09 | 28.95264 | -81.07862 | 8953 ft | 298 kts | 176° |
| 2026-04-26 21:09 | 28.93250 | -81.07629 | 8838 ft | 300 kts | 178° |
| 2026-04-26 21:10 | 28.91195 | -81.07410 | 8402 ft | 298 kts | 178° |
| 2026-04-26 21:10 | 28.89204 | -81.07293 | 8013 ft | 288 kts | 185° |
| 2026-04-26 21:10 | 28.87306 | -81.07671 | 7912 ft | 283 kts | 205° |
| 2026-04-26 21:10 | 28.85628 | -81.08744 | 7575 ft | 281 kts | 219° |
| 2026-04-26 21:11 | 28.84154 | -81.10024 | 7110 ft | 275 kts | 221° |
| 2026-04-26 21:11 | 28.82653 | -81.11364 | 6949 ft | 273 kts | 221° |
| 2026-04-26 21:11 | 28.81190 | -81.12617 | 6956 ft | 278 kts | 219° |
| 2026-04-26 21:11 | 28.79633 | -81.13887 | 6955 ft | 278 kts | 218° |
| 2026-04-26 21:12 | 28.78106 | -81.15097 | 6959 ft | 272 kts | 218° |
| 2026-04-26 21:12 | 28.76580 | -81.16288 | 6721 ft | 274 kts | 216° |
| 2026-04-26 21:12 | 28.75066 | -81.17303 | 6205 ft | 275 kts | 211° |
| 2026-04-26 21:12 | 28.73404 | -81.18263 | 5585 ft | 272 kts | 209° |
| 2026-04-26 21:13 | 28.71742 | -81.19202 | 5129 ft | 264 kts | 210° |
| 2026-04-26 21:13 | 28.70181 | -81.20121 | 4714 ft | 255 kts | 211° |
| 2026-04-26 21:13 | 28.68702 | -81.21023 | 4185 ft | 252 kts | 211° |
| 2026-04-26 21:13 | 28.67239 | -81.21938 | 3744 ft | 246 kts | 211° |
| 2026-04-26 21:14 | 28.65855 | -81.22804 | 3299 ft | 239 kts | 211° |
| 2026-04-26 21:14 | 28.64347 | -81.23739 | 2985 ft | 225 kts | 211° |
| 2026-04-26 21:14 | 28.63098 | -81.24506 | 2964 ft | 220 kts | 211° |
| 2026-04-26 21:15 | 28.60824 | -81.25896 | 2971 ft | 193 kts | 211° |
| 2026-04-26 21:15 | 28.59779 | -81.26537 | 2967 ft | 182 kts | 212° |
| 2026-04-26 21:15 | 28.58847 | -81.27113 | 2966 ft | 179 kts | 212° |
| 2026-04-26 21:15 | 28.57862 | -81.27723 | 2964 ft | 179 kts | 211° |
| 2026-04-26 21:16 | 28.56608 | -81.28429 | 2871 ft | 173 kts | 204° |
| 2026-04-26 21:16 | 28.55411 | -81.28591 | 2524 ft | 177 kts | 180° |
| 2026-04-26 21:16 | 28.54428 | -81.28483 | 2439 ft | 171 kts | 179° |
| 2026-04-26 21:16 | 28.53262 | -81.28402 | 2351 ft | 171 kts | 181° |
| 2026-04-26 21:17 | 28.51967 | -81.28357 | 1991 ft | 167 kts | 182° |
| 2026-04-26 21:17 | 28.50914 | -81.28413 | 1897 ft | 159 kts | 189° |
| 2026-04-26 21:17 | 28.49027 | -81.28441 | 1453 ft | 155 kts | 179° |
| 2026-04-26 21:18 | 28.47922 | -81.28314 | 1168 ft | 156 kts | 179° |
| 2026-04-26 21:18 | 28.46695 | -81.28267 | 859 ft | 157 kts | 183° |
| 2026-04-26 21:18 | 28.45596 | -81.28264 | 455 ft | 156 kts | 183° |
| 2026-04-26 21:18 | 28.44646 | -81.28258 | 176 ft | 151 kts | 182° |
| 2026-04-26 21:19 | 28.43617 | -81.28252 | 88 ft | 132 kts | 182° |
| 2026-04-26 21:19 | 28.42893 | -81.28260 | 87 ft | 61 kts | 178° |
| 2026-04-26 21:19 | 28.42815 | -81.28257 | 86 ft | 0 kts | 178° |
| 2026-04-26 21:20 | 28.42757 | -81.28255 | 86 ft | 19 kts | 178° |
| 2026-04-26 21:21 | 28.42634 | -81.28258 | 86 ft | 28 kts | 188° |
| 2026-04-26 21:21 | 28.42499 | -81.28429 | 85 ft | 23 kts | 251° |
| 2026-04-26 21:21 | 28.42489 | -81.28460 | 84 ft | 0 kts | 250° |
| 2026-04-26 21:21 | 28.42485 | -81.28473 | 84 ft | 0 kts | 251° |
| 2026-04-26 21:22 | 28.42477 | -81.28501 | 83 ft | 15 kts | 251° |
| 2026-04-26 21:22 | 28.42384 | -81.28800 | 83 ft | 51 kts | 251° |